createdAt,value
2022-10-23T00:01:45.154Z,95666.03
2022-10-23T00:04:14.715Z,95673.13
2022-10-23T00:06:43.367Z,95658.69
2022-10-23T00:09:17.975Z,95656.75
2022-10-23T00:11:48.574Z,95656.88
2022-10-23T00:14:17.645Z,95660.63
2022-10-23T00:16:45.746Z,95654.59
2022-10-23T00:19:13.838Z,95644.16
2022-10-23T00:21:41.822Z,95651.47
2022-10-23T00:26:42.826Z,95658.88
2022-10-23T00:29:12.265Z,95665.78
2022-10-23T00:31:40.065Z,95659.28
2022-10-23T00:34:09.169Z,95655.34
2022-10-23T00:36:38.601Z,95652.75
2022-10-23T00:39:07.025Z,95655.19
2022-10-23T00:41:34.632Z,95650.22
2022-10-23T00:44:07.065Z,95643.59
2022-10-23T00:46:37.742Z,95659.97
2022-10-23T00:49:06.988Z,95655.63
2022-10-23T00:51:39.377Z,95653.69
2022-10-23T00:54:24.844Z,95660.16
2022-10-23T00:56:55.545Z,95649.59
2022-10-23T00:59:23.336Z,95658.91
2022-10-23T01:01:52.788Z,95652.84
2022-10-23T01:04:21.018Z,95648.81
2022-10-23T01:06:59.447Z,95650.22
2022-10-23T01:09:32.675Z,95653.00
2022-10-23T01:12:10.011Z,95650.50
2022-10-23T01:14:43.973Z,95638.78
2022-10-23T01:17:19.646Z,95638.69
2022-10-23T01:20:02.333Z,95642.81
2022-10-23T01:22:47.792Z,95635.81
2022-10-23T01:25:24.637Z,95633.63
2022-10-23T01:28:01.198Z,95623.56
2022-10-23T01:30:30.819Z,95618.09
2022-10-23T01:33:05.542Z,95624.97
2022-10-23T01:35:38.097Z,95623.84
2022-10-23T01:38:12.382Z,95627.56
2022-10-23T01:40:47.780Z,95635.66
2022-10-23T01:43:20.995Z,95638.56
2022-10-23T01:45:52.049Z,95635.53
2022-10-23T01:48:25.670Z,95634.59
2022-10-23T01:50:56.435Z,95620.56
2022-10-23T01:53:27.038Z,95620.16
2022-10-23T01:55:56.389Z,95619.06
2022-10-23T01:58:27.465Z,95613.53
2022-10-23T02:01:00.218Z,95609.00
2022-10-23T02:03:30.751Z,95608.78
2022-10-23T02:05:58.817Z,95604.91
2022-10-23T02:08:26.603Z,95601.88
2022-10-23T02:11:03.374Z,95597.91
2022-10-23T02:13:39.223Z,95585.53
2022-10-23T02:16:16.575Z,95591.53
2022-10-23T02:18:52.401Z,95579.41
2022-10-23T02:21:28.497Z,95576.69
2022-10-23T02:24:00.490Z,95588.41
2022-10-23T02:26:35.211Z,95588.97
2022-10-23T02:29:10.036Z,95578.38
2022-10-23T02:31:37.908Z,95571.38
2022-10-23T02:34:05.687Z,95578.66
2022-10-23T02:36:33.285Z,95572.22
2022-10-23T02:39:00.900Z,95573.56
2022-10-23T02:41:40.548Z,95569.91
2022-10-23T02:44:24.271Z,95567.69
2022-10-23T02:46:58.516Z,95561.38
2022-10-23T02:49:32.575Z,95560.13
2022-10-23T02:52:09.831Z,95559.56
2022-10-23T02:55:04.011Z,95554.06
2022-10-23T02:57:35.902Z,95553.25
2022-10-23T03:00:09.070Z,95560.41
2022-10-23T03:02:40.820Z,95555.84
2022-10-23T03:05:12.209Z,95558.34
2022-10-23T03:07:40.870Z,95558.50
2022-10-23T03:10:10.213Z,95557.53
2022-10-23T03:12:38.830Z,95556.28
2022-10-23T03:15:09.281Z,95561.50
2022-10-23T03:17:36.878Z,95555.06
2022-10-23T03:20:05.021Z,95553.97
2022-10-23T03:22:32.635Z,95555.06
2022-10-23T03:25:00.248Z,95553.53
2022-10-23T03:29:56.421Z,95543.53
2022-10-23T03:32:25.361Z,95528.94
2022-10-23T03:34:52.988Z,95529.22
2022-10-23T03:37:20.584Z,95529.22
2022-10-23T03:39:48.153Z,95531.72
2022-10-23T03:42:15.778Z,95526.06
2022-10-23T03:44:43.435Z,95537.19
2022-10-23T03:47:11.958Z,95537.75
2022-10-23T03:49:41.036Z,95543.94
2022-10-23T03:52:09.359Z,95540.88
2022-10-23T03:54:36.970Z,95543.25
2022-10-23T03:57:04.811Z,95539.69
2022-10-23T03:59:32.456Z,95537.06
2022-10-23T04:02:00.263Z,95533.38
2022-10-23T04:04:28.203Z,95538.03
2022-10-23T04:06:57.153Z,95542.16
2022-10-23T04:09:24.852Z,95538.84
2022-10-23T04:11:52.459Z,95534.34
2022-10-23T04:14:20.035Z,95535.28
2022-10-23T04:16:47.570Z,95540.38
2022-10-23T04:19:17.140Z,95540.34
2022-10-23T04:21:44.842Z,95545.31
2022-10-23T04:24:14.024Z,95538.72
2022-10-23T04:26:41.742Z,95532.38
2022-10-23T04:29:09.332Z,95533.06
2022-10-23T04:31:36.931Z,95532.63
2022-10-23T04:36:37.134Z,95539.09
2022-10-23T04:39:04.921Z,95542.94
2022-10-23T04:41:33.812Z,95541.00
2022-10-23T04:44:01.423Z,95538.78
2022-10-23T04:46:29.220Z,95526.66
2022-10-23T04:48:56.782Z,95535.25
2022-10-23T04:51:24.512Z,95535.78
2022-10-23T04:53:52.060Z,95535.38
2022-10-23T04:56:19.642Z,95533.25
2022-10-23T04:58:48.564Z,95521.97
2022-10-23T05:01:16.310Z,95522.09
2022-10-23T05:03:44.140Z,95521.03
2022-10-23T05:06:11.750Z,95521.63
2022-10-23T05:08:39.387Z,95517.97
2022-10-23T05:11:07.019Z,95512.03
2022-10-23T05:13:34.581Z,95514.63
2022-10-23T05:16:04.047Z,95519.94
2022-10-23T05:18:35.704Z,95511.34
2022-10-23T05:21:07.573Z,95511.78
2022-10-23T05:23:37.524Z,95508.22
2022-10-23T05:26:06.233Z,95506.00
2022-10-23T05:28:33.804Z,95507.63
2022-10-23T05:31:04.310Z,95500.09
2022-10-23T05:33:32.838Z,95502.44
2022-10-23T05:36:01.701Z,95502.44
2022-10-23T05:38:31.495Z,95505.75
2022-10-23T05:40:59.140Z,95491.03
2022-10-23T05:43:27.312Z,95500.78
2022-10-23T05:45:54.972Z,95495.03
2022-10-23T05:48:34.315Z,95503.13
2022-10-23T05:51:06.576Z,95488.00
2022-10-23T05:53:36.125Z,95494.28
2022-10-23T05:56:08.094Z,95487.81
2022-10-23T05:58:36.215Z,95496.31
2022-10-23T06:01:07.201Z,95489.47
2022-10-23T06:03:36.824Z,95497.31
2022-10-23T06:06:05.159Z,95494.03
2022-10-23T06:08:33.511Z,95502.16
2022-10-23T06:11:07.269Z,95510.66
2022-10-23T06:13:35.046Z,95510.00
2022-10-23T06:16:09.931Z,95519.88
2022-10-23T06:18:39.050Z,95518.91
2022-10-23T06:21:07.170Z,95509.44
2022-10-23T06:23:36.237Z,95500.78
2022-10-23T06:26:04.234Z,95505.84
2022-10-23T06:28:32.383Z,95508.59
2022-10-23T06:31:00.019Z,95505.97
2022-10-23T06:33:27.564Z,95501.16
2022-10-23T06:35:58.287Z,95501.78
2022-10-23T06:38:25.889Z,95502.19
2022-10-23T06:40:54.082Z,95504.34
2022-10-23T06:43:21.776Z,95501.19
2022-10-23T06:45:49.619Z,95511.31
2022-10-23T06:48:17.477Z,95506.59
2022-10-23T06:50:45.069Z,95509.34
2022-10-23T06:53:14.144Z,95508.53
2022-10-23T06:55:41.717Z,95507.84
2022-10-23T06:58:10.775Z,95514.09
2022-10-23T07:00:38.910Z,95518.75
2022-10-23T07:03:08.446Z,95523.97
2022-10-23T07:05:36.315Z,95528.34
2022-10-23T07:08:06.042Z,95533.28
2022-10-23T07:10:35.398Z,95529.63
2022-10-23T07:13:03.223Z,95528.91
2022-10-23T07:15:31.042Z,95523.22
2022-10-23T07:17:58.680Z,95524.19
2022-10-23T07:20:26.408Z,95517.94
2022-10-23T07:22:55.297Z,95519.34
2022-10-23T07:25:23.745Z,95505.75
2022-10-23T07:27:55.316Z,95504.41
2022-10-23T07:30:24.235Z,95491.94
2022-10-23T07:32:52.253Z,95496.34
2022-10-23T07:35:19.987Z,95492.13
2022-10-23T07:37:48.555Z,95500.38
2022-10-23T07:40:17.254Z,95501.47
2022-10-23T07:42:44.810Z,95503.25
2022-10-23T07:45:13.758Z,95505.47
2022-10-23T07:47:41.682Z,95513.97
2022-10-23T07:50:10.407Z,95517.34
2022-10-23T07:52:37.984Z,95510.94
2022-10-23T07:55:06.352Z,95505.19
2022-10-23T07:57:33.968Z,95506.97
2022-10-23T08:00:01.555Z,95511.81
2022-10-23T08:02:30.479Z,95509.72
2022-10-23T08:04:58.049Z,95511.91
2022-10-23T08:07:25.626Z,95505.13
2022-10-23T08:09:53.646Z,95498.34
2022-10-23T08:12:21.264Z,95504.81
2022-10-23T08:14:48.961Z,95498.22
2022-10-23T08:17:16.525Z,95500.34
2022-10-23T08:19:47.119Z,95484.25
2022-10-23T08:22:14.963Z,95489.47
2022-10-23T08:24:42.549Z,95495.63
2022-10-23T08:27:10.094Z,95503.78
2022-10-23T08:29:37.707Z,95494.16
2022-10-23T08:32:05.703Z,95495.13
2022-10-23T08:34:33.264Z,95499.81
2022-10-23T08:37:02.223Z,95497.47
2022-10-23T08:39:29.791Z,95494.72
2022-10-23T08:41:57.419Z,95492.00
2022-10-23T08:44:31.999Z,95497.50
2022-10-23T08:47:06.586Z,95489.19
2022-10-23T08:49:48.739Z,95492.44
2022-10-23T08:52:24.403Z,95495.75
2022-10-23T08:55:03.670Z,95485.28
2022-10-23T08:57:40.036Z,95485.47
2022-10-23T09:00:14.904Z,95473.66
2022-10-23T09:02:45.991Z,95466.03
2022-10-23T09:05:18.127Z,95460.44
2022-10-23T09:08:00.900Z,95460.88
2022-10-23T09:10:58.334Z,95457.25
2022-10-23T09:13:45.871Z,95457.97
2022-10-23T09:16:20.407Z,95465.56
2022-10-23T09:18:50.662Z,95457.13
2022-10-23T09:21:18.482Z,95450.53
2022-10-23T09:23:47.394Z,95457.19
2022-10-23T09:26:16.804Z,95454.31
2022-10-23T09:28:48.947Z,95451.38
2022-10-23T09:31:17.512Z,95448.28
2022-10-23T09:33:55.723Z,95441.66
2022-10-23T09:36:24.473Z,95451.59
2022-10-23T09:38:55.121Z,95452.56
2022-10-23T09:41:25.684Z,95453.88
2022-10-23T09:44:04.040Z,95449.06
2022-10-23T09:46:39.450Z,95448.63
2022-10-23T09:49:08.067Z,95447.75
2022-10-23T09:51:35.785Z,95435.34
2022-10-23T09:54:05.057Z,95434.84
2022-10-23T09:56:35.629Z,95428.88
2022-10-23T09:59:06.330Z,95431.13
2022-10-23T10:01:36.136Z,95421.97
2022-10-23T10:04:03.846Z,95424.03
2022-10-23T10:06:33.634Z,95418.66
2022-10-23T10:09:06.877Z,95417.88
2022-10-23T10:11:38.566Z,95418.91
2022-10-23T10:14:28.015Z,95418.03
2022-10-23T10:17:01.772Z,95424.72
2022-10-23T10:19:40.509Z,95415.69
2022-10-23T10:22:19.179Z,95413.28
2022-10-23T10:24:57.211Z,95420.34
2022-10-23T10:27:42.622Z,95412.25
2022-10-23T10:30:16.594Z,95410.69
2022-10-23T10:32:51.297Z,95405.41
2022-10-23T10:35:38.387Z,95407.88
2022-10-23T10:38:21.670Z,95400.72
2022-10-23T10:41:15.281Z,95395.63
2022-10-23T10:43:52.853Z,95396.94
2022-10-23T10:46:31.598Z,95391.00
2022-10-23T10:49:08.959Z,95390.22
2022-10-23T10:51:48.866Z,95371.34
2022-10-23T10:54:44.287Z,95380.69
2022-10-23T10:57:26.746Z,95365.59
2022-10-23T11:00:03.594Z,95365.75
2022-10-23T11:02:38.908Z,95361.09
2022-10-23T11:05:19.341Z,95357.13
2022-10-23T11:07:55.730Z,95351.06
2022-10-23T11:10:23.540Z,95347.81
2022-10-23T11:12:52.945Z,95352.38
2022-10-23T11:15:26.131Z,95346.47
2022-10-23T11:17:57.839Z,95348.75
2022-10-23T11:20:39.900Z,95341.88
2022-10-23T11:23:31.977Z,95339.56
2022-10-23T11:26:16.203Z,95335.28
2022-10-23T11:29:03.817Z,95332.00
2022-10-23T11:31:39.949Z,95329.56
2022-10-23T11:34:35.110Z,95330.75
2022-10-23T11:37:04.738Z,95337.13
2022-10-23T11:39:34.058Z,95333.53
2022-10-23T11:42:14.335Z,95323.88
2022-10-23T11:44:45.207Z,95327.63
2022-10-23T11:47:36.354Z,95324.84
2022-10-23T11:50:15.621Z,95307.78
2022-10-23T11:53:13.028Z,95310.94
2022-10-23T11:55:57.137Z,95301.09
2022-10-23T11:58:31.432Z,95302.13
2022-10-23T12:01:05.421Z,95301.63
2022-10-23T12:03:41.822Z,95307.06
2022-10-23T12:06:23.633Z,95311.16
2022-10-23T12:08:55.065Z,95304.19
2022-10-23T12:11:28.241Z,95301.78
2022-10-23T12:13:56.192Z,95294.31
2022-10-23T12:16:35.626Z,95291.66
2022-10-23T12:19:18.818Z,95287.16
2022-10-23T12:21:47.619Z,95280.50
2022-10-23T12:24:31.887Z,95275.09
2022-10-23T12:27:09.119Z,95283.78
2022-10-23T12:29:53.563Z,95278.09
2022-10-23T12:32:34.982Z,95274.81
2022-10-23T12:35:34.007Z,95269.91
2022-10-23T12:38:14.189Z,95265.69
2022-10-23T12:40:42.031Z,95273.03
2022-10-23T12:43:24.370Z,95261.75
2022-10-23T12:45:52.614Z,95256.09
2022-10-23T12:48:23.199Z,95253.44
2022-10-23T12:50:52.469Z,95256.06
2022-10-23T12:53:21.347Z,95251.81
2022-10-23T12:55:52.632Z,95251.84
2022-10-23T12:58:21.587Z,95250.53
2022-10-23T13:00:54.269Z,95248.25
2022-10-23T13:03:26.008Z,95249.88
2022-10-23T13:05:55.754Z,95259.06
2022-10-23T13:08:24.697Z,95249.66
2022-10-23T13:10:52.406Z,95242.63
2022-10-23T13:13:24.107Z,95245.25
2022-10-23T13:15:51.962Z,95240.63
2022-10-23T13:18:19.762Z,95236.66
2022-10-23T13:20:59.982Z,95241.97
2022-10-23T13:23:32.095Z,95231.09
2022-10-23T13:26:01.426Z,95231.72
2022-10-23T13:28:33.230Z,95237.34
2022-10-23T13:31:23.562Z,95227.16
2022-10-23T13:33:53.137Z,95226.78
2022-10-23T13:36:24.352Z,95231.78
2022-10-23T13:39:03.759Z,95219.56
2022-10-23T13:41:37.546Z,95224.47
2022-10-23T13:44:05.490Z,95215.97
2022-10-23T13:46:33.175Z,95222.34
2022-10-23T13:49:00.856Z,95218.69
2022-10-23T13:51:32.017Z,95215.88
2022-10-23T13:53:59.601Z,95214.44
2022-10-23T13:56:28.587Z,95213.50
2022-10-23T13:58:56.151Z,95212.25
2022-10-23T14:01:27.229Z,95222.81
2022-10-23T14:03:55.893Z,95220.91
2022-10-23T14:06:23.581Z,95229.34
2022-10-23T14:08:52.947Z,95219.81
2022-10-23T14:11:21.988Z,95219.63
2022-10-23T14:13:49.966Z,95222.72
2022-10-23T14:16:20.521Z,95219.75
2022-10-23T14:18:48.609Z,95218.09
2022-10-23T14:21:19.800Z,95216.81
2022-10-23T14:23:48.096Z,95215.53
2022-10-23T14:26:19.375Z,95213.25
2022-10-23T14:28:47.129Z,95212.59
2022-10-23T14:31:15.961Z,95205.44
2022-10-23T14:33:44.425Z,95203.31
2022-10-23T14:36:12.572Z,95212.34
2022-10-23T14:38:40.395Z,95208.44
2022-10-23T14:41:12.831Z,95199.47
2022-10-23T14:43:42.943Z,95196.34
2022-10-23T14:46:12.615Z,95200.97
2022-10-23T14:48:42.376Z,95203.78
2022-10-23T14:51:18.807Z,95211.19
2022-10-23T14:53:46.831Z,95197.56
2022-10-23T14:56:15.209Z,95194.94
2022-10-23T14:58:44.137Z,95196.59
2022-10-23T15:01:11.890Z,95190.84
2022-10-23T15:03:39.621Z,95194.66
2022-10-23T15:06:08.729Z,95187.25
2022-10-23T15:08:36.941Z,95190.50
2022-10-23T15:11:08.916Z,95198.69
2022-10-23T15:13:39.327Z,95190.50
2022-10-23T15:16:10.093Z,95180.94
2022-10-23T15:21:11.042Z,95190.19
2022-10-23T15:23:41.031Z,95179.03
2022-10-23T15:26:10.955Z,95180.16
2022-10-23T15:28:39.091Z,95183.50
2022-10-23T15:31:24.268Z,95183.91
2022-10-23T15:33:51.807Z,95176.44
2022-10-23T15:36:19.514Z,95185.19
2022-10-23T15:38:47.115Z,95181.44
2022-10-23T15:41:16.482Z,95181.97
2022-10-23T15:43:44.294Z,95177.88
2022-10-23T15:46:13.255Z,95175.75
2022-10-23T15:48:40.833Z,95172.69
2022-10-23T15:51:08.382Z,95167.19
2022-10-23T15:53:36.247Z,95172.50
2022-10-23T15:56:03.925Z,95168.53
2022-10-23T15:58:31.533Z,95159.75
2022-10-23T16:01:02.923Z,95163.88
2022-10-23T16:03:32.155Z,95161.75
2022-10-23T16:05:59.782Z,95159.59
2022-10-23T16:08:27.321Z,95161.94
2022-10-23T16:10:54.905Z,95159.94
2022-10-23T16:13:22.508Z,95163.28
2022-10-23T16:15:50.073Z,95151.03
2022-10-23T16:18:18.739Z,95161.09
2022-10-23T16:20:48.015Z,95154.19
2022-10-23T16:23:15.599Z,95146.66
2022-10-23T16:25:43.227Z,95150.09
2022-10-23T16:28:10.834Z,95147.94
2022-10-23T16:30:41.697Z,95148.28
2022-10-23T16:33:09.336Z,95144.69
2022-10-23T16:35:37.278Z,95154.31
2022-10-23T16:38:06.431Z,95151.28
2022-10-23T16:40:34.040Z,95144.50
2022-10-23T16:43:01.580Z,95149.19
2022-10-23T16:45:29.190Z,95143.34
2022-10-23T16:47:56.951Z,95144.34
2022-10-23T16:50:24.579Z,95144.94
2022-10-23T16:52:55.483Z,95143.34
2022-10-23T16:55:24.908Z,95150.44
2022-10-23T16:57:52.535Z,95154.81
2022-10-23T17:00:22.025Z,95156.03
2022-10-23T17:02:49.724Z,95159.91
2022-10-23T17:05:17.424Z,95154.63
2022-10-23T17:07:45.202Z,95163.91
2022-10-23T17:10:13.049Z,95166.59
2022-10-23T17:12:41.988Z,95167.28
2022-10-23T17:15:10.993Z,95168.19
2022-10-23T17:17:38.738Z,95163.91
2022-10-23T17:20:07.224Z,95176.97
2022-10-23T17:22:35.855Z,95170.47
2022-10-23T17:25:03.641Z,95182.03
2022-10-23T17:27:31.224Z,95184.84
2022-10-23T17:30:00.159Z,95192.09
2022-10-23T17:32:27.812Z,95183.38
2022-10-23T17:34:55.409Z,95177.63
2022-10-23T17:37:23.023Z,95173.28
2022-10-23T17:39:50.658Z,95170.97
2022-10-23T17:42:18.269Z,95183.50
2022-10-23T17:44:45.887Z,95189.28
2022-10-23T17:47:34.577Z,95187.78
2022-10-23T17:50:02.470Z,95190.41
2022-10-23T17:52:30.082Z,95183.69
2022-10-23T17:54:57.649Z,95181.03
2022-10-23T17:57:25.252Z,95175.41
2022-10-23T17:59:52.839Z,95180.69
2022-10-23T18:02:20.637Z,95183.31
2022-10-23T18:04:49.655Z,95182.19
2022-10-23T18:07:17.362Z,95176.22
2022-10-23T18:09:46.072Z,95173.63
2022-10-23T18:12:13.684Z,95194.66
2022-10-23T18:14:41.254Z,95190.41
2022-10-23T18:17:08.868Z,95194.22
2022-10-23T18:19:36.466Z,95189.44
2022-10-23T18:22:05.507Z,95189.00
2022-10-23T18:24:33.350Z,95208.13
2022-10-23T18:27:01.051Z,95209.72
2022-10-23T18:29:28.623Z,95208.13
2022-10-23T18:31:56.227Z,95196.44
2022-10-23T18:34:25.666Z,95202.50
2022-10-23T18:36:55.265Z,95195.97
2022-10-23T18:39:25.962Z,95181.25
2022-10-23T18:41:56.015Z,95182.25
2022-10-23T18:44:25.035Z,95191.97
2022-10-23T18:46:52.922Z,95197.81
2022-10-23T18:49:21.237Z,95206.66
2022-10-23T18:51:49.728Z,95203.09
2022-10-23T18:54:18.734Z,95202.59
2022-10-23T18:56:48.151Z,95197.88
2022-10-23T18:59:18.328Z,95190.50
2022-10-23T19:01:46.149Z,95174.44
2022-10-23T19:04:15.870Z,95184.78
2022-10-23T19:06:43.695Z,95187.41
2022-10-23T19:09:14.689Z,95185.63
2022-10-23T19:11:43.441Z,95188.25
2022-10-23T19:14:12.534Z,95190.22
2022-10-23T19:16:44.930Z,95197.56
2022-10-23T19:19:16.802Z,95200.50
2022-10-23T19:21:45.348Z,95198.06
2022-10-23T19:24:16.320Z,95202.66
2022-10-23T19:26:45.022Z,95204.34
2022-10-23T19:29:18.112Z,95203.16
2022-10-23T19:31:49.168Z,95199.75
2022-10-23T19:34:19.709Z,95194.81
2022-10-23T19:36:47.505Z,95201.72
2022-10-23T19:39:15.384Z,95204.38
2022-10-23T19:41:43.040Z,95216.19
2022-10-23T19:44:10.641Z,95205.19
2022-10-23T19:46:39.594Z,95200.13
2022-10-23T19:49:08.827Z,95200.94
2022-10-23T19:51:36.987Z,95196.69
2022-10-23T19:54:05.140Z,95205.56
2022-10-23T19:56:32.700Z,95197.50
2022-10-23T19:59:00.361Z,95199.81
2022-10-23T20:01:28.042Z,95201.59
2022-10-23T20:03:57.570Z,95199.47
2022-10-23T20:06:27.922Z,95197.16
2022-10-23T20:08:56.343Z,95191.78
2022-10-23T20:11:28.056Z,95197.81
2022-10-23T20:13:56.886Z,95197.69
2022-10-23T20:16:27.149Z,95192.44
2022-10-23T20:18:54.890Z,95197.63
2022-10-23T20:21:24.650Z,95191.06
2022-10-23T20:23:52.720Z,95194.19
2022-10-23T20:26:23.112Z,95194.34
2022-10-23T20:28:54.015Z,95202.22
2022-10-23T20:31:23.172Z,95208.63
2022-10-23T20:33:51.529Z,95210.56
2022-10-23T20:36:26.153Z,95221.72
2022-10-23T20:38:54.482Z,95228.75
2022-10-23T20:41:24.945Z,95226.94
2022-10-23T20:43:52.668Z,95235.28
2022-10-23T20:46:20.375Z,95242.84
2022-10-23T20:48:47.955Z,95250.53
2022-10-23T20:51:17.825Z,95268.59
2022-10-23T20:53:47.767Z,95275.50
2022-10-23T20:56:17.161Z,95296.91
2022-10-23T20:58:45.010Z,95301.66
2022-10-23T21:01:16.279Z,95317.13
2022-10-23T21:03:45.022Z,95315.63
2022-10-23T21:06:14.673Z,95311.50
2022-10-23T21:08:43.257Z,95327.94
2022-10-23T21:11:14.224Z,95355.72
2022-10-23T21:13:42.747Z,95364.09
2022-10-23T21:16:15.014Z,95378.06
2022-10-23T21:18:46.867Z,95376.75
2022-10-23T21:21:17.041Z,95370.66
2022-10-23T21:23:45.077Z,95369.56
2022-10-23T21:26:14.628Z,95370.31
2022-10-23T21:31:37.277Z,95367.53
2022-10-23T21:34:05.660Z,95365.56
2022-10-23T21:36:34.226Z,95368.53
2022-10-23T21:39:03.330Z,95372.16
2022-10-23T21:41:32.884Z,95380.88
2022-10-23T21:44:02.227Z,95388.06
2022-10-23T21:46:33.721Z,95400.72
2022-10-23T21:49:02.725Z,95408.91
2022-10-23T21:51:42.447Z,95420.44
2022-10-23T21:54:17.199Z,95418.28
2022-10-23T21:56:47.422Z,95424.84
2022-10-23T21:59:20.139Z,95433.06
2022-10-23T22:01:54.109Z,95419.75
2022-10-23T22:04:23.491Z,95432.56
2022-10-23T22:06:54.188Z,95437.47
2022-10-23T22:09:22.966Z,95446.19
2022-10-23T22:11:51.048Z,95447.00
2022-10-23T22:14:19.460Z,95452.28
2022-10-23T22:16:47.650Z,95460.63
2022-10-23T22:19:17.025Z,95461.47
2022-10-23T22:21:49.079Z,95458.81
2022-10-23T22:24:17.861Z,95451.59
2022-10-23T22:26:49.211Z,95467.88
2022-10-23T22:29:20.537Z,95469.00
2022-10-23T22:31:49.825Z,95471.31
2022-10-23T22:34:34.786Z,95474.91
2022-10-23T22:37:12.758Z,95482.31
2022-10-23T22:39:41.774Z,95480.19
2022-10-23T22:42:10.092Z,95496.78
2022-10-23T22:44:39.643Z,95491.03
2022-10-23T22:47:07.442Z,95487.41
2022-10-23T22:49:35.118Z,95483.44
2022-10-23T22:52:02.706Z,95478.56
2022-10-23T22:54:31.763Z,95483.28
2022-10-23T22:56:59.645Z,95495.94
2022-10-23T22:59:30.064Z,95503.69
2022-10-23T23:02:00.544Z,95508.78
2022-10-23T23:04:38.955Z,95504.66
2022-10-23T23:07:08.375Z,95494.81
2022-10-23T23:09:41.184Z,95495.47
2022-10-23T23:12:10.336Z,95506.28
2022-10-23T23:14:40.894Z,95508.13
2022-10-23T23:17:10.390Z,95515.19
2022-10-23T23:19:38.186Z,95512.19
2022-10-23T23:22:06.015Z,95508.09
2022-10-23T23:24:33.965Z,95509.59
2022-10-23T23:27:03.012Z,95506.28
2022-10-23T23:29:30.627Z,95512.06
2022-10-23T23:31:58.299Z,95494.00
2022-10-23T23:34:26.143Z,95513.72
2022-10-23T23:36:54.136Z,95517.13
2022-10-23T23:39:21.810Z,95511.53
2022-10-23T23:41:49.413Z,95516.66
2022-10-23T23:44:18.420Z,95513.72
2022-10-23T23:46:46.125Z,95520.59
2022-10-23T23:49:13.792Z,95512.38
2022-10-23T23:51:41.998Z,95510.91
2022-10-23T23:54:09.690Z,95523.72
2022-10-23T23:56:37.289Z,95514.50
2022-10-23T23:59:05.236Z,95530.06
